Time;durP1;ratioP1;P1;durP2;ratioP2;P2;SDS_P1;SDS_P2;PMS_P1;PMS_P2;Temp;Humidity;BMP_temperature;BMP_pressure;BME280_temperature;BME280_humidity;BME280_pressure;Samples;Min_cycle;Max_cycle;Signal;HPM_P1;HPM_P2
2023/11/29 00:01:43;;;;;;;9.37;4.40;;;1.40;98.00;;;;;;4934155;29;20469;-66
2023/11/29 00:04:10;;;;;;;10.80;4.27;;;1.40;98.00;;;;;;4932866;29;20455;-65
2023/11/29 00:06:37;;;;;;;7.73;4.40;;;1.40;98.00;;;;;;4934085;29;20549;-65
2023/11/29 00:09:04;;;;;;;8.37;3.83;;;1.40;98.00;;;;;;4933966;29;20459;-65
2023/11/29 00:11:31;;;;;;;7.83;4.30;;;1.20;98.00;;;;;;4934212;29;20469;-66
2023/11/29 00:13:58;;;;;;;11.97;4.30;;;1.20;98.00;;;;;;4932731;29;20462;-65
2023/11/29 00:16:27;;;;;;;10.53;4.30;;;1.30;98.00;;;;;;4932875;29;20466;-65
2023/11/29 00:18:54;;;;;;;10.73;4.30;;;1.30;98.00;;;;;;4934117;29;20467;-65
2023/11/29 00:21:21;;;;;;;13.30;4.70;;;1.30;98.00;;;;;;4934180;29;20451;-65
2023/11/29 00:23:48;;;;;;;9.77;4.37;;;1.20;98.00;;;;;;4933875;29;20482;-65
2023/11/29 00:26:15;;;;;;;8.97;4.27;;;1.30;98.00;;;;;;4933970;29;20494;-65
2023/11/29 00:28:44;;;;;;;12.53;4.90;;;1.40;98.00;;;;;;4933829;29;20463;-65
2023/11/29 00:31:11;;;;;;;11.20;4.63;;;1.30;98.00;;;;;;4933890;29;20455;-65
2023/11/29 00:33:40;;;;;;;11.07;4.20;;;1.30;98.00;;;;;;4933882;29;20466;-65
2023/11/29 00:36:09;;;;;;;11.17;5.00;;;1.30;98.00;;;;;;4933780;29;20459;-65
2023/11/29 00:38:36;;;;;;;8.40;4.40;;;1.30;98.00;;;;;;4933739;29;20556;-64
2023/11/29 00:41:03;;;;;;;9.33;4.13;;;1.40;98.00;;;;;;4933223;29;20457;-65
2023/11/29 00:43:31;;;;;;;7.73;3.97;;;1.40;98.00;;;;;;4932503;29;20981;-66
2023/11/29 00:45:58;;;;;;;9.40;4.47;;;1.50;98.00;;;;;;4933808;29;20493;-66
2023/11/29 00:48:25;;;;;;;7.80;4.17;;;1.40;98.00;;;;;;4933591;29;20479;-65
2023/11/29 00:50:54;;;;;;;8.10;4.10;;;1.40;98.00;;;;;;4933893;29;20455;-65
2023/11/29 00:53:21;;;;;;;8.57;4.10;;;1.40;98.00;;;;;;4933748;29;20455;-65
2023/11/29 00:55:48;;;;;;;9.40;3.80;;;1.40;98.00;;;;;;4933507;29;20950;-64
2023/11/29 00:58:17;;;;;;;11.03;5.00;;;1.50;98.00;;;;;;4933361;29;20458;-66
2023/11/29 01:00:44;;;;;;;10.00;4.23;;;1.40;98.00;;;;;;4933662;29;20916;-65
2023/11/29 01:03:11;;;;;;;7.40;4.10;;;1.30;98.00;;;;;;4934925;29;20463;-65
2023/11/29 01:05:38;;;;;;;11.13;4.33;;;1.10;98.00;;;;;;4937070;29;20493;-65
2023/11/29 01:08:07;;;;;;;10.33;4.03;;;1.20;98.00;;;;;;4937115;29;20458;-65
2023/11/29 01:10:34;;;;;;;8.90;4.23;;;1.20;98.00;;;;;;4936396;29;20478;-66
2023/11/29 01:13:01;;;;;;;10.37;4.30;;;1.20;98.00;;;;;;4937425;29;20466;-65
2023/11/29 01:15:28;;;;;;;9.33;3.90;;;1.20;98.00;;;;;;4937236;29;20458;-65
2023/11/29 01:17:57;;;;;;;8.43;3.97;;;1.20;98.00;;;;;;4936842;29;20482;-66
2023/11/29 01:20:24;;;;;;;8.73;4.00;;;1.30;98.00;;;;;;4936774;29;20455;-65
2023/11/29 01:22:51;;;;;;;11.67;4.77;;;1.40;98.00;;;;;;4936826;29;20948;-66
2023/11/29 01:25:19;;;;;;;10.40;4.30;;;1.30;98.00;;;;;;4936751;29;20501;-66
2023/11/29 01:27:46;;;;;;;8.97;3.63;;;1.20;98.00;;;;;;4936818;29;20471;-65
2023/11/29 01:30:13;;;;;;;12.03;3.83;;;1.30;98.00;;;;;;4936231;29;20480;-65
2023/11/29 01:32:41;;;;;;;8.83;4.30;;;1.30;98.00;;;;;;4936752;29;20478;-66
2023/11/29 01:35:09;;;;;;;12.60;4.67;;;1.20;98.00;;;;;;4935465;29;21020;-64
2023/11/29 01:37:36;;;;;;;10.17;4.43;;;1.20;98.00;;;;;;4936601;29;20969;-66
2023/11/29 01:40:03;;;;;;;9.37;4.30;;;1.20;98.00;;;;;;4936444;29;20455;-65
2023/11/29 01:42:32;;;;;;;9.20;4.33;;;1.20;98.00;;;;;;4936515;29;21013;-65
2023/11/29 01:44:59;;;;;;;8.60;4.10;;;1.20;98.00;;;;;;4936359;29;20522;-65
2023/11/29 01:47:29;;;;;;;9.83;4.63;;;1.20;98.00;;;;;;4936382;29;20486;-65
2023/11/29 01:49:56;;;;;;;9.97;4.70;;;1.20;98.00;;;;;;4936355;29;20538;-64
2023/11/29 01:52:23;;;;;;;12.20;5.37;;;1.10;98.00;;;;;;4936290;29;20474;-65
2023/11/29 01:54:50;;;;;;;10.03;4.37;;;0.90;98.00;;;;;;4936276;29;20459;-66
2023/11/29 01:57:17;;;;;;;10.13;4.73;;;1.00;98.00;;;;;;4936404;29;20463;-65
2023/11/29 01:59:51;;;;;;;13.23;5.10;;;1.00;98.00;;;;;;4935164;29;20444;-64
2023/11/29 02:02:19;;;;;;;11.70;4.43;;;1.10;98.00;;;;;;4936207;29;20470;-65
2023/11/29 02:04:46;;;;;;;9.60;4.77;;;1.10;98.00;;;;;;4936292;29;20466;-65
2023/11/29 02:07:14;;;;;;;7.97;4.23;;;1.10;98.00;;;;;;4936376;29;20491;-64
2023/11/29 02:09:41;;;;;;;12.53;5.13;;;1.10;98.00;;;;;;4935991;29;20469;-65
2023/11/29 02:12:09;;;;;;;9.77;4.23;;;1.10;98.00;;;;;;4936127;29;20451;-65
2023/11/29 02:14:39;;;;;;;15.73;5.10;;;1.30;98.00;;;;;;4935862;29;20466;-65
2023/11/29 02:17:08;;;;;;;8.80;5.00;;;1.40;98.00;;;;;;4936034;29;20478;-65
2023/11/29 02:19:35;;;;;;;13.50;4.73;;;1.40;98.00;;;;;;4935921;29;20499;-65
2023/11/29 02:22:02;;;;;;;11.27;4.30;;;1.30;98.00;;;;;;4935705;29;20455;-65
2023/11/29 02:24:33;;;;;;;13.70;5.07;;;1.30;98.00;;;;;;4935439;29;20467;-66
2023/11/29 02:27:02;;;;;;;9.83;4.50;;;1.40;98.00;;;;;;4935637;29;20487;-66
2023/11/29 02:29:29;;;;;;;12.20;4.73;;;1.30;98.00;;;;;;4935717;29;20950;-65
2023/11/29 02:31:56;;;;;;;9.00;4.40;;;1.30;98.00;;;;;;4935662;29;20451;-65
2023/11/29 02:34:23;;;;;;;11.63;5.40;;;1.20;98.00;;;;;;4935302;29;20965;-65
2023/11/29 02:36:50;;;;;;;12.00;5.13;;;1.00;98.00;;;;;;4935495;29;20457;-65
2023/11/29 02:39:18;;;;;;;10.93;5.37;;;0.90;98.00;;;;;;4935239;29;20462;-64
2023/11/29 02:41:45;;;;;;;11.80;5.57;;;0.80;98.00;;;;;;4935395;29;20455;-65
2023/11/29 02:44:13;;;;;;;11.17;4.77;;;0.80;98.00;;;;;;4935406;29;20467;-65
2023/11/29 02:46:40;;;;;;;10.73;5.10;;;0.80;98.00;;;;;;4935380;29;21030;-64
2023/11/29 02:49:07;;;;;;;11.37;4.50;;;0.80;98.00;;;;;;4935128;29;20459;-65
2023/11/29 02:51:34;;;;;;;12.07;5.17;;;0.80;98.00;;;;;;4935615;29;20881;-65
2023/11/29 02:54:01;;;;;;;12.33;5.23;;;0.80;98.00;;;;;;4935256;29;20447;-65
2023/11/29 02:56:28;;;;;;;12.87;5.40;;;0.90;98.00;;;;;;4935119;29;20466;-66
2023/11/29 02:58:56;;;;;;;12.10;4.73;;;0.80;98.00;;;;;;4934880;29;20459;-65
2023/11/29 03:01:24;;;;;;;13.17;5.83;;;0.70;98.00;;;;;;4935064;29;20458;-66
2023/11/29 03:03:51;;;;;;;9.67;4.63;;;0.60;98.00;;;;;;4934984;29;20864;-65
2023/11/29 03:06:19;;;;;;;11.77;5.20;;;0.60;98.00;;;;;;4934935;29;21012;-65
2023/11/29 03:08:47;;;;;;;10.80;5.10;;;0.60;98.00;;;;;;4934916;29;20463;-66
2023/11/29 03:11:14;;;;;;;10.87;5.00;;;0.60;98.00;;;;;;4934839;29;20451;-65
2023/11/29 03:13:42;;;;;;;12.00;5.20;;;0.70;98.00;;;;;;4934787;29;20469;-65
2023/11/29 03:16:10;;;;;;;12.87;4.90;;;0.70;98.00;;;;;;4934853;29;20472;-65
2023/11/29 03:18:38;;;;;;;13.90;5.10;;;0.60;98.00;;;;;;4933414;29;20478;-65
2023/11/29 03:21:06;;;;;;;11.03;4.70;;;0.60;98.00;;;;;;4934627;29;20462;-65
2023/11/29 03:23:33;;;;;;;11.57;5.00;;;0.50;98.00;;;;;;4948753;29;20459;-65
2023/11/29 03:26:05;;;;;;;12.40;5.30;;;0.60;98.00;;;;;;4933725;29;20644;-66
2023/11/29 03:28:32;;;;;;;10.30;4.33;;;0.50;98.00;;;;;;4949280;29;20463;-64
2023/11/29 03:31:00;;;;;;;12.13;5.13;;;0.40;98.00;;;;;;4934700;29;20474;-64
2023/11/29 03:33:27;;;;;;;9.77;4.57;;;0.30;98.00;;;;;;4934454;29;20470;-65
2023/11/29 03:35:57;;;;;;;11.93;5.10;;;0.30;98.00;;;;;;4933294;29;20467;-65
2023/11/29 03:38:24;;;;;;;12.13;5.23;;;0.40;98.00;;;;;;4934039;29;20686;-64
2023/11/29 03:40:51;;;;;;;9.90;4.47;;;0.50;98.00;;;;;;4934511;29;20463;-65
2023/11/29 03:43:18;;;;;;;11.03;4.40;;;0.40;98.00;;;;;;4934389;29;20466;-66
2023/11/29 03:45:45;;;;;;;13.70;4.17;;;0.40;98.00;;;;;;4934336;29;20465;-64
2023/11/29 03:48:13;;;;;;;14.83;4.87;;;0.40;98.00;;;;;;4934290;29;20532;-64
2023/11/29 03:50:41;;;;;;;8.97;4.50;;;0.30;98.00;;;;;;4934352;29;20458;-65
2023/11/29 03:53:09;;;;;;;10.10;4.53;;;0.30;98.00;;;;;;4934744;29;20470;-64
2023/11/29 03:55:36;;;;;;;10.80;4.90;;;0.30;98.00;;;;;;4949167;29;20521;-65
2023/11/29 03:58:04;;;;;;;22.23;7.10;;;0.20;98.00;;;;;;4934442;29;20462;-65
2023/11/29 04:00:31;;;;;;;16.90;6.37;;;0.20;98.00;;;;;;4934393;29;20458;-65
2023/11/29 04:02:58;;;;;;;12.43;5.17;;;0.20;98.00;;;;;;4934145;29;20808;-66
2023/11/29 04:05:25;;;;;;;11.87;5.27;;;0.30;98.00;;;;;;4934132;29;20462;-64
2023/11/29 04:07:53;;;;;;;13.30;5.90;;;0.30;98.00;;;;;;4934208;29;20494;-65
2023/11/29 04:10:21;;;;;;;14.30;5.87;;;0.30;98.00;;;;;;4932753;29;20466;-64
2023/11/29 04:12:48;;;;;;;10.97;4.97;;;0.40;98.00;;;;;;4933980;29;20463;-65
2023/11/29 04:15:16;;;;;;;13.67;5.60;;;0.40;98.00;;;;;;4932516;29;20476;-65
2023/11/29 04:17:43;;;;;;;13.23;5.33;;;0.40;98.00;;;;;;4933790;29;20466;-64
2023/11/29 04:20:10;;;;;;;10.87;4.53;;;0.50;98.00;;;;;;4933859;29;20481;-65
2023/11/29 04:22:38;;;;;;;10.97;4.63;;;0.60;98.00;;;;;;4934035;29;20455;-65
2023/11/29 04:25:07;;;;;;;11.73;4.40;;;0.70;98.00;;;;;;4933779;29;20459;-65
2023/11/29 04:27:37;;;;;;;11.70;4.67;;;0.90;98.00;;;;;;4933788;29;21021;-65
2023/11/29 04:30:04;;;;;;;11.50;4.67;;;0.90;98.00;;;;;;4933827;29;20953;-64
2023/11/29 04:32:31;;;;;;;12.43;5.30;;;0.90;98.00;;;;;;4933436;29;20459;-65
2023/11/29 04:34:58;;;;;;;11.73;4.50;;;0.90;98.00;;;;;;4933713;29;20510;-65
2023/11/29 04:37:26;;;;;;;12.60;5.20;;;0.80;98.00;;;;;;4950366;28;20471;-65
2023/11/29 04:39:53;;;;;;;12.47;5.00;;;0.70;98.00;;;;;;4937563;29;20458;-65
2023/11/29 04:42:21;;;;;;;11.20;5.00;;;0.60;98.00;;;;;;4937822;29;20509;-65
2023/11/29 04:44:50;;;;;;;13.00;5.10;;;0.60;98.00;;;;;;4937367;29;20854;-65
2023/11/29 04:47:18;;;;;;;15.80;5.50;;;0.70;98.00;;;;;;4937559;29;20863;-65
2023/11/29 04:49:45;;;;;;;13.43;5.17;;;0.70;98.00;;;;;;4937390;29;20552;-64
2023/11/29 04:52:12;;;;;;;11.77;5.00;;;0.80;98.00;;;;;;4937692;29;20551;-66
2023/11/29 04:54:39;;;;;;;9.87;4.50;;;0.80;98.00;;;;;;4937512;29;20455;-65
2023/11/29 04:57:06;;;;;;;10.57;4.70;;;0.80;98.00;;;;;;4937411;29;20462;-65
2023/11/29 04:59:37;;;;;;;11.97;5.63;;;0.80;98.00;;;;;;4937406;29;20977;-64
2023/11/29 05:02:06;;;;;;;11.07;4.87;;;0.90;98.00;;;;;;4936072;29;20545;-65
2023/11/29 05:04:34;;;;;;;17.57;5.40;;;0.90;98.00;;;;;;4920533;29;20960;-65
2023/11/29 05:07:01;;;;;;;10.40;5.10;;;0.90;98.00;;;;;;4937175;29;20494;-65
2023/11/29 05:09:28;;;;;;;10.67;5.13;;;0.80;98.00;;;;;;4935822;29;20534;-65
2023/11/29 05:11:57;;;;;;;10.40;4.80;;;0.90;98.00;;;;;;4937131;29;20454;-65
2023/11/29 05:14:25;;;;;;;17.23;5.07;;;0.90;98.00;;;;;;4935827;29;20466;-65
2023/11/29 05:16:52;;;;;;;8.43;4.07;;;1.00;98.00;;;;;;4936077;29;20927;-66
2023/11/29 05:19:20;;;;;;;9.57;4.40;;;1.00;98.00;;;;;;4936727;29;20478;-65
2023/11/29 05:21:48;;;;;;;11.20;4.90;;;1.00;98.00;;;;;;4935741;29;20548;-65
2023/11/29 05:24:14;;;;;;;10.33;4.80;;;1.10;98.00;;;;;;4936874;29;20459;-64
2023/11/29 05:26:41;;;;;;;9.17;4.40;;;1.10;98.00;;;;;;4936604;29;20498;-64
2023/11/29 05:29:09;;;;;;;12.53;4.93;;;1.10;98.00;;;;;;4936276;29;20549;-66
2023/11/29 05:31:36;;;;;;;11.33;4.67;;;1.20;98.00;;;;;;4936845;29;20474;-65
2023/11/29 05:34:03;;;;;;;11.13;4.90;;;1.10;98.00;;;;;;4936775;29;20458;-65
2023/11/29 05:36:33;;;;;;;12.47;5.60;;;1.10;98.00;;;;;;4936952;29;20514;-64
2023/11/29 05:39:02;;;;;;;14.23;5.60;;;1.10;98.00;;;;;;4936665;29;20510;-65
2023/11/29 05:41:29;;;;;;;10.50;5.03;;;1.20;98.00;;;;;;4935558;29;20451;-65
2023/11/29 05:43:56;;;;;;;10.17;4.70;;;1.10;98.00;;;;;;4935912;29;20462;-66
2023/11/29 05:46:23;;;;;;;13.27;5.50;;;1.20;98.00;;;;;;4951457;29;20946;-65
2023/11/29 05:48:50;;;;;;;15.97;6.13;;;1.10;98.00;;;;;;4935971;29;20953;-66
2023/11/29 05:51:18;;;;;;;17.57;6.70;;;1.10;98.00;;;;;;4936489;29;20506;-65
2023/11/29 05:53:46;;;;;;;16.80;6.23;;;1.10;98.00;;;;;;4936403;29;20458;-64
2023/11/29 05:56:14;;;;;;;14.10;5.80;;;1.20;98.00;;;;;;4936214;29;20462;-65
2023/11/29 05:58:42;;;;;;;11.70;5.27;;;1.30;98.00;;;;;;4934820;29;20546;-65
2023/11/29 06:01:10;;;;;;;14.17;5.37;;;1.20;98.00;;;;;;4936341;29;20458;-65
2023/11/29 06:03:37;;;;;;;13.30;5.77;;;1.10;98.00;;;;;;4936323;29;20455;-65
2023/11/29 06:06:05;;;;;;;16.20;5.90;;;1.20;98.00;;;;;;4936413;29;20463;-65
2023/11/29 06:08:32;;;;;;;14.30;5.60;;;1.30;98.00;;;;;;4934941;29;20546;-65
2023/11/29 06:11:04;;;;;;;16.90;5.90;;;1.10;98.00;;;;;;4936195;29;20462;-64
2023/11/29 06:13:31;;;;;;;11.60;4.80;;;1.10;98.00;;;;;;4936110;29;20933;-65
2023/11/29 06:15:58;;;;;;;12.30;5.47;;;1.20;98.00;;;;;;4936178;29;20585;-65
2023/11/29 06:18:25;;;;;;;14.00;5.83;;;1.30;98.00;;;;;;4935566;29;20485;-66
2023/11/29 06:20:52;;;;;;;13.10;5.10;;;1.30;98.00;;;;;;4936295;29;20459;-65
2023/11/29 06:23:19;;;;;;;11.80;5.20;;;1.30;98.00;;;;;;4935935;29;20935;-65
2023/11/29 06:25:47;;;;;;;10.63;4.13;;;1.40;98.00;;;;;;4934679;29;20451;-65
2023/11/29 06:28:17;;;;;;;7.70;3.87;;;1.40;98.00;;;;;;4934527;29;20490;-66
2023/11/29 06:30:44;;;;;;;15.20;5.27;;;1.30;98.00;;;;;;4935927;29;20993;-64
2023/11/29 06:33:11;;;;;;;11.10;4.50;;;1.30;98.00;;;;;;4935604;29;20518;-65
2023/11/29 06:35:38;;;;;;;9.97;4.50;;;1.40;98.00;;;;;;4935760;29;20466;-65
2023/11/29 06:38:05;;;;;;;10.50;4.80;;;1.40;98.00;;;;;;4934482;29;20827;-65
2023/11/29 06:40:33;;;;;;;9.60;4.10;;;1.40;98.00;;;;;;4935561;29;20462;-64
2023/11/29 06:43:00;;;;;;;10.23;4.57;;;1.40;98.00;;;;;;4935499;29;20462;-66
2023/11/29 06:45:29;;;;;;;11.13;5.13;;;1.40;98.00;;;;;;4935340;29;20455;-65
2023/11/29 06:47:56;;;;;;;14.17;5.77;;;1.40;98.00;;;;;;4950104;29;20513;-65
2023/11/29 06:50:24;;;;;;;15.70;5.53;;;1.40;98.00;;;;;;4934167;29;20462;-66
2023/11/29 06:52:51;;;;;;;12.10;5.67;;;1.40;98.00;;;;;;4935581;29;20466;-65
2023/11/29 06:55:18;;;;;;;15.03;6.20;;;1.40;98.00;;;;;;4935247;29;20514;-66
2023/11/29 06:57:46;;;;;;;16.20;6.33;;;1.40;98.00;;;;;;4934173;29;20546;-65
2023/11/29 07:00:16;;;;;;;14.00;5.47;;;1.30;98.00;;;;;;4934230;29;20491;-65
2023/11/29 07:02:44;;;;;;;14.67;5.97;;;1.30;98.00;;;;;;4935277;29;20518;-65
2023/11/29 07:05:12;;;;;;;13.97;5.60;;;1.30;98.00;;;;;;4935143;29;20471;-64
2023/11/29 07:07:39;;;;;;;13.47;5.20;;;1.30;98.00;;;;;;4935054;29;21049;-64
2023/11/29 07:10:07;;;;;;;14.50;6.07;;;1.30;98.00;;;;;;4934904;29;20499;-63
2023/11/29 07:12:35;;;;;;;13.47;5.60;;;1.30;98.00;;;;;;4934996;29;20490;-62
2023/11/29 07:15:02;;;;;;;13.33;6.40;;;1.20;98.00;;;;;;4934666;29;20459;-63
2023/11/29 07:17:29;;;;;;;10.93;5.30;;;1.30;98.00;;;;;;4934577;29;20503;-63
2023/11/29 07:20:00;;;;;;;17.47;7.17;;;1.20;98.00;;;;;;4934999;29;20835;-63
2023/11/29 07:22:27;;;;;;;11.00;5.37;;;1.20;98.00;;;;;;4934783;29;20466;-63
2023/11/29 07:24:55;;;;;;;12.30;5.77;;;1.20;98.00;;;;;;4933720;29;20463;-63
2023/11/29 07:27:22;;;;;;;12.70;5.53;;;1.20;98.00;;;;;;4934616;29;20845;-63
2023/11/29 07:29:50;;;;;;;18.17;5.50;;;1.30;98.00;;;;;;4934767;29;20479;-63
2023/11/29 07:32:22;;;;;;;13.37;6.30;;;1.20;98.00;;;;;;4934505;29;20443;-63
2023/11/29 07:34:49;;;;;;;12.77;5.60;;;1.20;98.00;;;;;;4935126;29;20964;-63
2023/11/29 07:37:21;;;;;;;19.30;6.33;;;1.10;98.00;;;;;;4934841;29;20451;-63
2023/11/29 07:39:48;;;;;;;12.67;5.43;;;1.20;98.00;;;;;;4934670;29;20470;-63
2023/11/29 07:42:15;;;;;;;10.57;4.53;;;1.20;98.00;;;;;;4934539;29;20876;-63
2023/11/29 07:44:43;;;;;;;12.60;5.40;;;1.30;98.00;;;;;;4934488;29;20459;-63
2023/11/29 07:47:11;;;;;;;12.63;5.30;;;1.30;98.00;;;;;;4934291;29;21067;-63
2023/11/29 07:49:39;;;;;;;9.47;4.60;;;1.40;98.00;;;;;;4934317;29;20459;-62
2023/11/29 07:52:09;;;;;;;7.10;3.90;;;1.40;98.00;;;;;;4933355;29;20470;-63
2023/11/29 07:54:37;;;;;;;10.53;4.87;;;1.60;98.00;;;;;;4933305;29;20461;-63
2023/11/29 07:57:04;;;;;;;10.47;4.30;;;1.80;98.00;;;;;;4934329;29;20455;-63
2023/11/29 07:59:33;;;;;;;8.87;3.63;;;1.90;98.00;;;;;;4934001;29;20459;-63
2023/11/29 08:02:01;;;;;;;8.73;3.80;;;2.00;98.00;;;;;;4934169;29;20459;-63
2023/11/29 08:04:28;;;;;;;8.30;4.07;;;2.00;98.00;;;;;;4934162;29;20466;-63
2023/11/29 08:06:55;;;;;;;8.30;3.95;;;2.10;98.00;;;;;;4934185;29;20459;-63
2023/11/29 08:09:22;;;;;;;9.40;4.20;;;2.10;98.00;;;;;;4932910;29;20242;-63
2023/11/29 08:11:50;;;;;;;8.93;4.57;;;2.10;98.00;;;;;;4933937;29;20497;-63
2023/11/29 08:14:35;;;;;;;7.97;3.90;;;2.10;98.00;;;;;;4933978;29;20455;-63
2023/11/29 08:17:04;;;;;;;7.50;3.47;;;2.10;98.00;;;;;;4933651;29;20871;-63
2023/11/29 08:19:31;;;;;;;6.80;3.57;;;2.10;98.00;;;;;;4933938;29;20462;-63
2023/11/29 08:22:01;;;;;;;6.70;3.07;;;2.20;98.00;;;;;;4934153;29;20454;-63
2023/11/29 08:24:28;;;;;;;8.57;4.30;;;2.20;98.00;;;;;;4925161;29;20460;-63
2023/11/29 08:26:56;;;;;;;8.00;3.47;;;2.30;98.00;;;;;;4914687;29;20466;-63
2023/11/29 08:29:23;;;;;;;7.13;3.67;;;2.20;98.00;;;;;;4914626;29;20567;-63
2023/11/29 08:31:50;;;;;;;8.30;3.90;;;2.20;98.00;;;;;;4914708;29;20853;-62
2023/11/29 08:34:17;;;;;;;8.03;3.37;;;2.10;98.00;;;;;;4914652;29;20472;-62
2023/11/29 08:36:44;;;;;;;11.00;3.80;;;2.10;98.00;;;;;;4914992;29;20521;-62
2023/11/29 08:39:12;;;;;;;7.83;4.20;;;2.00;98.00;;;;;;4897847;29;20467;-62
2023/11/29 08:41:46;;;;;;;8.40;3.67;;;2.00;98.00;;;;;;4914587;29;20459;-62
2023/11/29 08:44:16;;;;;;;13.93;3.80;;;2.00;98.00;;;;;;4928880;29;21065;-62
2023/11/29 08:46:43;;;;;;;7.00;3.30;;;2.00;98.00;;;;;;4914936;29;20467;-62
2023/11/29 08:49:11;;;;;;;7.23;3.33;;;2.00;98.00;;;;;;4913400;29;20563;-63
2023/11/29 08:51:38;;;;;;;5.57;3.23;;;2.00;98.00;;;;;;4913578;29;20836;-62
2023/11/29 08:54:05;;;;;;;7.63;3.80;;;2.10;98.00;;;;;;4913492;29;20466;-60
2023/11/29 08:56:33;;;;;;;5.60;3.30;;;2.20;98.00;;;;;;4913382;29;20492;-61
2023/11/29 08:59:01;;;;;;;5.17;2.90;;;2.30;98.00;;;;;;4913340;29;20947;-61
2023/11/29 09:01:31;;;;;;;5.93;2.93;;;2.50;98.00;;;;;;4914481;29;20547;-62
2023/11/29 09:03:58;;;;;;;5.27;2.93;;;2.50;98.00;;;;;;4914628;29;20631;-62
2023/11/29 09:06:25;;;;;;;7.80;3.20;;;2.60;98.00;;;;;;4914610;29;20902;-63
2023/11/29 09:08:54;;;;;;;6.97;3.27;;;2.60;98.00;;;;;;4914389;29;20499;-62
2023/11/29 09:11:21;;;;;;;5.50;2.93;;;2.70;98.00;;;;;;4919345;29;20494;-63
2023/11/29 09:13:49;;;;;;;4.80;2.97;;;2.70;98.00;;;;;;4924368;29;20453;-63
2023/11/29 09:16:16;;;;;;;5.53;2.90;;;2.80;98.00;;;;;;4914622;29;20499;-62
2023/11/29 09:18:45;;;;;;;13.67;3.63;;;2.60;98.00;;;;;;4914329;29;20558;-62
2023/11/29 09:21:12;;;;;;;6.57;3.30;;;2.60;98.00;;;;;;4914550;29;20456;-62
2023/11/29 09:24:06;;;;;;;9.77;3.70;;;2.60;98.00;;;;;;4957966;23;20505;-88
2023/11/29 09:26:33;;;;;;;5.70;3.07;;;2.60;98.00;;;;;;4956668;28;20466;-89
2023/11/29 09:29:00;;;;;;;5.00;3.20;;;2.60;98.00;;;;;;4956814;28;20474;-90
2023/11/29 09:31:27;;;;;;;4.53;2.60;;;2.70;98.00;;;;;;4957431;28;20473;-90
2023/11/29 09:33:57;;;;;;;9.00;3.80;;;2.80;98.00;;;;;;4958087;28;20465;-91
2023/11/29 09:36:24;;;;;;;5.80;2.80;;;2.80;98.00;;;;;;4956257;28;20952;-90
2023/11/29 09:38:51;;;;;;;6.80;3.43;;;2.70;98.00;;;;;;4958189;28;20462;-89
2023/11/29 09:41:18;;;;;;;7.77;3.20;;;2.70;98.00;;;;;;4957218;28;20458;-89
2023/11/29 09:43:47;;;;;;;7.60;3.60;;;2.70;98.00;;;;;;4955479;28;21004;-90
2023/11/29 09:46:14;;;;;;;7.10;3.50;;;2.80;98.00;;;;;;4970518;28;20454;-88
2023/11/29 09:48:43;;;;;;;5.90;2.93;;;2.80;98.00;;;;;;4975430;28;20484;-89
2023/11/29 09:51:18;;;;;;;7.30;3.30;;;2.80;98.00;;;;;;4976512;28;20469;-89
2023/11/29 09:53:45;;;;;;;12.43;3.20;;;2.70;98.00;;;;;;4975750;28;21017;-89
2023/11/29 09:56:13;;;;;;;7.07;3.10;;;2.70;98.00;;;;;;4975763;28;20458;-88
2023/11/29 09:58:40;;;;;;;7.47;3.40;;;2.70;98.00;;;;;;4976226;28;20487;-89
2023/11/29 10:01:07;;;;;;;8.03;3.87;;;2.70;98.00;;;;;;4999667;28;20480;-90
2023/11/29 10:03:35;;;;;;;7.47;3.27;;;2.80;98.00;;;;;;4999985;28;20480;-91
2023/11/29 10:06:04;;;;;;;10.43;3.40;;;2.90;98.00;;;;;;4999965;28;20481;-90
2023/11/29 10:08:33;;;;;;;6.27;3.00;;;3.00;98.00;;;;;;5000080;28;20496;-92
2023/11/29 10:11:01;;;;;;;6.37;3.13;;;2.90;98.00;;;;;;5000297;28;20499;-89
2023/11/29 10:13:29;;;;;;;7.00;3.70;;;2.90;98.00;;;;;;4976131;28;20449;-90
2023/11/29 10:15:58;;;;;;;6.10;3.27;;;3.00;98.00;;;;;;4957634;28;20469;-87
2023/11/29 10:18:45;;;;;;;5.20;3.17;;;2.90;98.00;;;;;;4956642;28;20478;-89
2023/11/29 10:21:48;;;;;;;4.73;2.80;;;2.90;98.00;;;;;;4956647;28;20462;-90
2023/11/29 10:24:31;;;;;;;5.87;3.20;;;3.00;98.00;;;;;;4956022;28;20474;-87
2023/11/29 10:26:58;;;;;;;4.90;2.93;;;3.00;98.00;;;;;;4956493;28;20925;-88
2023/11/29 10:29:26;;;;;;;4.73;2.77;;;3.10;98.00;;;;;;4956079;28;20498;-91
2023/11/29 10:31:57;;;;;;;5.70;2.77;;;2.90;98.00;;;;;;4956475;28;20466;-89
2023/11/29 10:34:25;;;;;;;5.70;3.10;;;2.90;98.00;;;;;;4956532;28;20462;-89
2023/11/29 10:36:55;;;;;;;3.97;2.50;;;2.80;98.00;;;;;;4956089;28;20999;-89
2023/11/29 10:39:31;;;;;;;7.70;2.97;;;2.70;98.00;;;;;;4955141;28;20451;-89
2023/11/29 10:42:02;;;;;;;6.80;3.20;;;2.70;98.00;;;;;;4955596;28;20466;-89
2023/11/29 10:44:31;;;;;;;4.77;3.00;;;2.70;98.00;;;;;;4955397;28;20470;-89
2023/11/29 10:47:06;;;;;;;4.40;2.53;;;2.70;98.00;;;;;;4955137;28;20482;-89
2023/11/29 10:49:44;;;;;;;5.40;3.00;;;2.80;98.00;;;;;;4954929;28;20504;-89
2023/11/29 10:52:12;;;;;;;4.20;2.67;;;2.70;98.00;;;;;;4954383;28;20458;-88
2023/11/29 10:54:40;;;;;;;4.43;2.60;;;2.80;98.00;;;;;;4962523;28;20949;-88
2023/11/29 10:57:09;;;;;;;3.43;2.47;;;2.80;98.00;;;;;;4954521;28;21059;-88
2023/11/29 10:59:39;;;;;;;8.33;3.50;;;2.80;98.00;;;;;;4954966;28;20455;-88
2023/11/29 11:02:07;;;;;;;7.03;3.30;;;2.90;98.00;;;;;;4954777;28;20462;-90
2023/11/29 11:04:35;;;;;;;6.30;3.37;;;2.90;98.00;;;;;;4955149;28;20462;-88
2023/11/29 11:07:02;;;;;;;10.00;3.77;;;2.90;98.00;;;;;;4955394;28;20474;-89
2023/11/29 11:09:39;;;;;;;5.20;3.27;;;2.90;98.00;;;;;;4954827;28;20481;-88
2023/11/29 11:12:08;;;;;;;6.33;3.03;;;3.00;98.00;;;;;;4954340;28;20540;-88
2023/11/29 11:14:49;;;;;;;6.03;2.93;;;3.00;98.00;;;;;;4954714;28;20451;-88
2023/11/29 11:17:18;;;;;;;5.00;3.10;;;2.90;98.00;;;;;;4954942;28;20497;-89
2023/11/29 11:19:47;;;;;;;5.77;3.20;;;3.00;98.00;;;;;;4954683;28;20466;-88
2023/11/29 11:22:15;;;;;;;5.80;2.90;;;3.10;98.00;;;;;;4954947;28;20454;-88
2023/11/29 11:24:56;;;;;;;5.53;2.80;;;3.10;98.00;;;;;;4954593;28;20539;-88
2023/11/29 11:27:26;;;;;;;6.77;2.83;;;3.20;98.00;;;;;;4954795;28;20493;-88
2023/11/29 11:29:55;;;;;;;4.77;2.80;;;3.20;98.00;;;;;;4954773;28;20865;-88
2023/11/29 11:32:45;;;;;;;4.50;2.70;;;3.30;98.00;;;;;;4955013;28;20494;-89
2023/11/29 11:35:32;;;;;;;4.10;2.60;;;3.40;98.00;;;;;;4954918;28;20828;-89
2023/11/29 11:38:03;;;;;;;5.67;3.03;;;3.60;98.00;;;;;;4954399;28;21000;-89
2023/11/29 11:40:31;;;;;;;5.50;2.83;;;3.50;98.00;;;;;;4954885;28;20477;-88
2023/11/29 11:43:01;;;;;;;5.37;2.70;;;3.60;98.00;;;;;;4955584;28;20871;-87
2023/11/29 11:45:31;;;;;;;7.63;3.43;;;3.60;98.00;;;;;;4955190;28;20461;-88
2023/11/29 11:47:59;;;;;;;3.83;2.40;;;3.50;98.00;;;;;;4955110;28;20482;-87
2023/11/29 11:56:18;;;;;;;4.17;2.67;;;3.60;98.00;;;;;;4955168;28;21006;-90
2023/11/29 11:58:47;;;;;;;5.43;2.73;;;3.70;98.00;;;;;;4954582;28;20451;-89
2023/11/29 12:01:15;;;;;;;6.30;3.30;;;3.70;98.00;;;;;;4954456;28;20579;-89
2023/11/29 12:03:42;;;;;;;5.40;3.00;;;3.80;98.00;;;;;;4954188;28;20469;-89
2023/11/29 12:06:10;;;;;;;6.43;3.07;;;3.90;98.00;;;;;;4954864;28;20462;-89
2023/11/29 12:08:38;;;;;;;6.07;3.00;;;4.10;98.00;;;;;;4954676;28;20492;-89
2023/11/29 12:11:09;;;;;;;7.67;3.47;;;4.10;98.00;;;;;;4955601;28;20459;-89
2023/11/29 12:13:38;;;;;;;5.27;2.90;;;4.30;98.00;;;;;;4954211;28;20833;-90
2023/11/29 12:16:15;;;;;;;6.83;3.20;;;4.40;98.00;;;;;;4954770;28;20462;-89
2023/11/29 12:18:42;;;;;;;5.80;3.17;;;4.60;98.00;;;;;;4954129;28;20483;-91
2023/11/29 12:21:09;;;;;;;6.27;2.77;;;4.50;98.00;;;;;;4954422;28;20460;-89
2023/11/29 12:23:40;;;;;;;8.37;2.97;;;4.50;98.00;;;;;;4954583;28;20971;-89
2023/11/29 12:26:08;;;;;;;4.27;2.30;;;4.40;98.00;;;;;;4954561;28;20467;-89
2023/11/29 12:28:39;;;;;;;5.73;2.43;;;4.40;98.00;;;;;;4953611;28;20498;-89
2023/11/29 12:31:07;;;;;;;5.90;2.77;;;4.30;98.00;;;;;;4954563;28;20469;-89
2023/11/29 12:33:36;;;;;;;5.27;2.70;;;4.20;98.00;;;;;;4954488;28;20464;-89
2023/11/29 12:36:09;;;;;;;3.50;2.50;;;4.40;98.00;;;;;;4955229;28;20470;-88
2023/11/29 12:38:37;;;;;;;5.07;2.67;;;4.30;98.00;;;;;;4954615;28;20491;-90
2023/11/29 12:41:04;;;;;;;5.47;2.70;;;4.50;98.00;;;;;;4954437;28;20852;-89
2023/11/29 12:43:31;;;;;;;7.30;2.83;;;4.60;98.00;;;;;;4954278;28;20463;-89
2023/11/29 12:45:58;;;;;;;5.70;2.63;;;4.80;98.00;;;;;;4954400;28;20956;-89
2023/11/29 12:48:46;;;;;;;5.80;3.13;;;5.20;98.00;;;;;;4954513;28;20488;-90
2023/11/29 12:51:14;;;;;;;5.37;2.87;;;5.50;98.00;;;;;;4955323;28;20448;-90
2023/11/29 12:53:41;;;;;;;4.20;2.60;;;5.80;98.00;;;;;;4954572;28;20496;-90
2023/11/29 12:56:12;;;;;;;4.60;2.80;;;6.10;98.00;;;;;;4955830;29;20464;-91
2023/11/29 12:58:48;;;;;;;4.93;2.67;;;6.20;98.00;;;;;;4954983;28;20477;-91
2023/11/29 13:01:15;;;;;;;5.60;2.77;;;6.10;98.00;;;;;;4958643;28;20463;-91
2023/11/29 13:03:44;;;;;;;4.73;2.60;;;6.10;98.00;;;;;;4958474;28;20499;-90
2023/11/29 13:06:27;;;;;;;3.83;2.60;;;6.00;98.00;;;;;;4958687;28;20834;-90